Terminal Aerodrome Forecast
Issued by NWS Wichita, KS

Home | Current Version | Previous Version | Graphics & Text | Print | Product List | Glossary On
Versions: 1 2 3 4 5 6 7 8 9 10 11 12 13 14 15 16 17 18
000
FTUS43 KICT 152300
TAFICT
TAF
KICT 152322Z 1600/1624 03011KT P6SM SCT020 BKN060
      TEMPO 1600/1603 BKN020
     FM160600 06007KT P6SM BKN025
     FM161300 14007KT P6SM SCT035
      TEMPO 1613/1617 BKN025=

USA.gov is the U.S. government's official web portal to all federal, state and local government web resources and services.